createdAt,value
2023-05-21T00:02:17.349Z,101574.94
2023-05-21T00:04:44.888Z,101573.56
2023-05-21T00:07:12.660Z,101574.41
2023-05-21T00:09:39.116Z,101575.88
2023-05-21T00:12:06.601Z,101578.22
2023-05-21T00:14:33.170Z,101571.88
2023-05-21T00:16:59.617Z,101575.94
2023-05-21T00:19:27.139Z,101568.06
2023-05-21T00:21:54.774Z,101574.28
2023-05-21T00:24:21.316Z,101564.69
2023-05-21T00:26:47.803Z,101571.59
2023-05-21T00:29:14.416Z,101571.66
2023-05-21T00:31:41.014Z,101561.25
2023-05-21T00:34:07.566Z,101568.13
2023-05-21T00:36:34.785Z,101563.47
2023-05-21T00:39:02.373Z,101566.00
2023-05-21T00:41:30.161Z,101553.41
2023-05-21T00:43:57.225Z,101561.88
2023-05-21T00:46:24.024Z,101563.72
2023-05-21T00:48:51.164Z,101554.31
2023-05-21T00:51:18.703Z,101557.31
2023-05-21T00:53:46.620Z,101557.38
2023-05-21T00:56:13.692Z,101546.09
2023-05-21T00:58:40.984Z,101547.06
2023-05-21T01:01:13.849Z,101542.16
2023-05-21T01:03:41.011Z,101540.72
2023-05-21T01:06:09.704Z,101536.16
2023-05-21T01:08:40.684Z,101539.59
2023-05-21T01:11:08.010Z,101534.91
2023-05-21T01:13:38.595Z,101536.75
2023-05-21T01:16:08.995Z,101536.75
2023-05-21T01:18:37.786Z,101523.69
2023-05-21T01:21:05.407Z,101530.41
2023-05-21T01:23:32.060Z,101525.75
2023-05-21T01:25:58.542Z,101525.53
2023-05-21T01:28:25.066Z,101529.66
2023-05-21T01:30:51.904Z,101534.53
2023-05-21T01:33:26.034Z,101525.75
2023-05-21T01:36:09.384Z,101526.06
2023-05-21T01:38:42.700Z,101531.16
2023-05-21T01:41:14.117Z,101522.69
2023-05-21T01:43:43.994Z,101528.50
2023-05-21T01:46:16.946Z,101518.66
2023-05-21T01:48:44.505Z,101519.56
2023-05-21T01:51:11.875Z,101516.00
2023-05-21T01:57:59.061Z,101515.88
2023-05-21T02:00:29.349Z,101518.19
2023-05-21T02:02:55.920Z,101516.66
2023-05-21T02:05:22.464Z,101512.53
2023-05-21T02:07:51.959Z,101513.59
2023-05-21T02:10:19.140Z,101514.34
2023-05-21T02:12:46.008Z,101512.16
2023-05-21T02:15:14.252Z,101510.47
2023-05-21T02:17:42.516Z,101509.66
2023-05-21T02:20:11.930Z,101504.34
2023-05-21T02:22:39.866Z,101505.81
2023-05-21T02:25:07.932Z,101506.56
2023-05-21T02:27:36.729Z,101496.44
2023-05-21T02:30:05.984Z,101494.09
2023-05-21T02:32:32.767Z,101493.53
2023-05-21T02:34:59.569Z,101495.06
2023-05-21T02:37:29.871Z,101498.47
2023-05-21T02:39:56.723Z,101491.38
2023-05-21T02:42:23.825Z,101494.78
2023-05-21T02:44:51.331Z,101494.41
2023-05-21T02:47:19.710Z,101496.19
2023-05-21T02:49:46.921Z,101493.19
2023-05-21T02:52:13.696Z,101490.09
2023-05-21T02:54:40.166Z,101486.44
2023-05-21T02:57:06.676Z,101480.47
2023-05-21T02:59:33.183Z,101472.38
2023-05-21T03:02:00.427Z,101483.13
2023-05-21T03:04:28.375Z,101480.75
2023-05-21T03:06:56.513Z,101479.84
2023-05-21T03:09:23.017Z,101478.59
2023-05-21T03:11:50.349Z,101477.53
2023-05-21T03:14:16.850Z,101482.44
2023-05-21T03:16:43.833Z,101484.47
2023-05-21T03:19:11.508Z,101470.81
2023-05-21T03:21:38.268Z,101480.94
2023-05-21T03:24:06.864Z,101476.47
2023-05-21T03:26:33.706Z,101484.34
2023-05-21T03:29:00.286Z,101482.72
2023-05-21T03:31:27.754Z,101483.22
2023-05-21T03:34:08.577Z,101482.09
2023-05-21T03:36:35.099Z,101484.69
2023-05-21T03:39:03.567Z,101477.81
2023-05-21T03:41:32.887Z,101482.09
2023-05-21T03:44:06.302Z,101482.69
2023-05-21T03:46:45.628Z,101488.31
2023-05-21T03:49:20.518Z,101484.00
2023-05-21T03:51:49.516Z,101486.28
2023-05-21T03:54:17.728Z,101487.44
2023-05-21T03:56:44.611Z,101486.50
2023-05-21T03:59:11.461Z,101482.84
2023-05-21T04:01:39.055Z,101485.84
2023-05-21T04:04:07.945Z,101484.84
2023-05-21T04:06:34.481Z,101489.09
2023-05-21T04:09:01.178Z,101489.59
2023-05-21T04:11:27.700Z,101486.38
2023-05-21T04:13:54.150Z,101490.97
2023-05-21T04:16:20.641Z,101499.91
2023-05-21T04:18:47.360Z,101483.19
2023-05-21T04:21:15.423Z,101489.59
2023-05-21T04:23:41.874Z,101494.56
2023-05-21T04:26:17.850Z,101499.03
2023-05-21T04:28:45.977Z,101494.91
2023-05-21T04:31:14.229Z,101498.34
2023-05-21T04:33:42.189Z,101500.66
2023-05-21T04:36:11.674Z,101495.75
2023-05-21T04:38:39.816Z,101507.06
2023-05-21T04:41:06.915Z,101505.59
2023-05-21T04:43:33.456Z,101501.53
2023-05-21T04:46:00.008Z,101504.03
2023-05-21T04:48:29.426Z,101508.72
2023-05-21T04:50:56.756Z,101499.84
2023-05-21T04:53:25.864Z,101498.34
2023-05-21T04:55:52.439Z,101495.88
2023-05-21T04:58:19.517Z,101506.97
2023-05-21T05:00:46.936Z,101504.59
2023-05-21T05:03:13.885Z,101499.03
2023-05-21T05:05:40.805Z,101504.41
2023-05-21T05:08:07.678Z,101507.13
2023-05-21T05:10:34.162Z,101507.84
2023-05-21T05:13:00.766Z,101499.69
2023-05-21T05:15:28.871Z,101506.41
2023-05-21T05:17:56.621Z,101507.88
2023-05-21T05:20:23.160Z,101503.09
2023-05-21T05:22:50.469Z,101509.88
2023-05-21T05:25:17.260Z,101501.06
2023-05-21T05:27:44.766Z,101504.63
2023-05-21T05:30:11.693Z,101499.59
2023-05-21T05:32:38.340Z,101497.50
2023-05-21T05:35:05.533Z,101509.66
2023-05-21T05:37:32.780Z,101498.03
2023-05-21T05:39:59.348Z,101511.22
2023-05-21T05:42:27.050Z,101511.75
2023-05-21T05:44:53.780Z,101507.75
2023-05-21T05:47:21.757Z,101502.59
2023-05-21T05:49:48.688Z,101507.09
2023-05-21T05:52:15.302Z,101506.88
2023-05-21T05:54:41.746Z,101506.75
2023-05-21T05:57:08.842Z,101505.09
2023-05-21T05:59:35.972Z,101501.94
2023-05-21T06:02:03.012Z,101504.47
2023-05-21T06:04:30.002Z,101504.97
2023-05-21T06:07:00.525Z,101515.81
2023-05-21T06:09:27.015Z,101507.00
2023-05-21T06:11:53.479Z,101511.19
2023-05-21T06:14:19.956Z,101505.09
2023-05-21T06:16:46.481Z,101510.00
2023-05-21T06:19:13.010Z,101507.66
2023-05-21T06:21:39.532Z,101509.28
2023-05-21T06:24:07.154Z,101495.13
2023-05-21T06:26:33.777Z,101494.03
2023-05-21T06:29:01.263Z,101492.56
2023-05-21T06:31:28.691Z,101501.88
2023-05-21T06:33:55.346Z,101500.81
2023-05-21T06:36:22.071Z,101492.41
2023-05-21T06:38:48.931Z,101496.13
2023-05-21T06:41:15.453Z,101497.00
2023-05-21T06:43:48.875Z,101488.31
2023-05-21T06:46:38.510Z,101489.00
2023-05-21T06:49:07.935Z,101491.78
2023-05-21T06:51:34.749Z,101494.81
2023-05-21T06:54:02.473Z,101490.88
2023-05-21T06:56:29.042Z,101491.63
2023-05-21T06:58:55.577Z,101493.66
2023-05-21T07:01:23.447Z,101479.66
2023-05-21T07:03:50.008Z,101483.16
2023-05-21T07:06:16.894Z,101482.16
2023-05-21T07:08:43.497Z,101482.75
2023-05-21T07:11:10.122Z,101489.22
2023-05-21T07:13:37.169Z,101486.09
2023-05-21T07:16:03.792Z,101483.78
2023-05-21T07:18:31.234Z,101489.00
2023-05-21T07:20:57.804Z,101485.38
2023-05-21T07:23:25.036Z,101490.97
2023-05-21T07:25:51.592Z,101481.72
2023-05-21T07:28:18.994Z,101486.78
2023-05-21T07:30:45.491Z,101481.09
2023-05-21T07:33:16.341Z,101475.44
2023-05-21T07:35:43.959Z,101476.97
2023-05-21T07:38:10.482Z,101476.56
2023-05-21T07:40:37.181Z,101482.88
2023-05-21T07:43:04.186Z,101472.69
2023-05-21T07:45:32.068Z,101467.63
2023-05-21T07:47:58.828Z,101474.53
2023-05-21T07:50:26.434Z,101480.03
2023-05-21T07:52:52.952Z,101468.97
2023-05-21T07:55:20.202Z,101463.66
2023-05-21T07:57:47.097Z,101466.25
2023-05-21T08:00:16.194Z,101468.34
2023-05-21T08:02:47.276Z,101463.00
2023-05-21T08:05:16.367Z,101459.69
2023-05-21T08:07:43.726Z,101455.91
2023-05-21T08:10:10.481Z,101459.81
2023-05-21T08:12:37.134Z,101452.88
2023-05-21T08:15:05.075Z,101448.56
2023-05-21T08:17:33.686Z,101449.75
2023-05-21T08:20:00.480Z,101450.88
2023-05-21T08:22:27.434Z,101448.06
2023-05-21T08:24:54.499Z,101451.53
2023-05-21T08:27:21.310Z,101445.25
2023-05-21T08:29:48.050Z,101457.66
2023-05-21T08:32:15.271Z,101457.09
2023-05-21T08:34:42.200Z,101458.63
2023-05-21T08:37:36.749Z,101454.81
2023-05-21T08:40:12.638Z,101450.97
2023-05-21T08:42:49.304Z,101450.44
2023-05-21T08:45:26.681Z,101450.63
2023-05-21T08:47:58.460Z,101450.94
2023-05-21T08:50:28.288Z,101452.59
2023-05-21T08:52:58.970Z,101453.16
2023-05-21T08:55:26.804Z,101448.25
2023-05-21T08:57:54.763Z,101457.59
2023-05-21T09:00:22.843Z,101451.97
2023-05-21T09:02:51.146Z,101452.16
2023-05-21T09:05:19.161Z,101449.84
2023-05-21T09:07:55.083Z,101447.53
2023-05-21T09:11:01.359Z,101440.50
2023-05-21T09:13:33.367Z,101448.94
2023-05-21T09:16:04.173Z,101443.84
2023-05-21T09:18:30.849Z,101445.50
2023-05-21T09:21:27.376Z,101451.78
2023-05-21T09:23:59.390Z,101442.72
2023-05-21T09:26:26.655Z,101443.56
2023-05-21T09:28:57.989Z,101434.41
2023-05-21T09:31:25.930Z,101434.59
2023-05-21T09:33:53.220Z,101439.72
2023-05-21T09:36:21.869Z,101427.97
2023-05-21T09:38:50.147Z,101425.66
2023-05-21T09:41:21.244Z,101422.13
2023-05-21T09:43:48.807Z,101420.97
2023-05-21T09:46:16.032Z,101432.41
2023-05-21T09:48:43.540Z,101420.81
2023-05-21T09:51:16.526Z,101410.09
2023-05-21T09:53:50.277Z,101417.44
2023-05-21T09:56:18.952Z,101416.03
2023-05-21T09:58:46.198Z,101418.03
2023-05-21T10:01:13.418Z,101416.19
2023-05-21T10:03:43.170Z,101412.31
2023-05-21T10:06:11.600Z,101410.38
2023-05-21T10:08:44.512Z,101402.91
2023-05-21T10:11:11.901Z,101400.88
2023-05-21T10:13:44.702Z,101393.91
2023-05-21T10:16:11.384Z,101385.38
2023-05-21T10:18:39.002Z,101388.66
2023-05-21T10:21:07.192Z,101395.66
2023-05-21T10:23:36.242Z,101390.91
2023-05-21T10:26:04.085Z,101393.44
2023-05-21T10:28:31.613Z,101382.81
2023-05-21T10:30:58.712Z,101387.72
2023-05-21T10:33:26.750Z,101382.78
2023-05-21T10:35:54.416Z,101376.56
2023-05-21T10:38:21.166Z,101376.13
2023-05-21T10:40:49.011Z,101373.47
2023-05-21T10:43:38.828Z,101372.28
2023-05-21T10:46:19.562Z,101369.16
2023-05-21T10:49:07.986Z,101365.84
2023-05-21T10:52:07.234Z,101361.81
2023-05-21T10:54:54.802Z,101364.25
2023-05-21T10:57:39.930Z,101361.25
2023-05-21T11:00:09.502Z,101358.69
2023-05-21T11:02:36.833Z,101355.16
2023-05-21T11:05:04.494Z,101349.13
2023-05-21T11:08:01.486Z,101339.41
2023-05-21T11:10:40.508Z,101345.50
2023-05-21T11:13:16.976Z,101350.69
2023-05-21T11:15:58.469Z,101336.81
2023-05-21T11:18:30.899Z,101342.16
2023-05-21T11:21:04.730Z,101338.66
2023-05-21T11:23:53.571Z,101346.88
2023-05-21T11:26:22.494Z,101351.84
2023-05-21T11:29:03.987Z,101352.06
2023-05-21T11:31:38.588Z,101338.84
2023-05-21T11:34:11.678Z,101347.19
2023-05-21T11:36:39.497Z,101334.69
2023-05-21T11:39:15.297Z,101324.31
2023-05-21T11:41:58.326Z,101337.63
2023-05-21T11:44:47.518Z,101337.59
2023-05-21T11:47:19.099Z,101337.47
2023-05-21T11:49:46.576Z,101326.03
2023-05-21T11:52:14.077Z,101338.50
2023-05-21T11:54:46.102Z,101346.75
2023-05-21T11:57:17.398Z,101341.91
2023-05-21T11:59:44.449Z,101347.59
2023-05-21T12:02:17.875Z,101347.16
2023-05-21T12:04:46.494Z,101339.38
2023-05-21T12:07:15.041Z,101342.66
2023-05-21T12:09:46.783Z,101349.84
2023-05-21T12:12:16.455Z,101335.00
2023-05-21T12:14:48.012Z,101341.91
2023-05-21T12:17:25.240Z,101325.41
2023-05-21T12:19:55.043Z,101336.44
2023-05-21T12:22:23.470Z,101329.94
2023-05-21T12:24:50.373Z,101327.22
2023-05-21T12:27:18.183Z,101323.63
2023-05-21T12:29:46.428Z,101323.63
2023-05-21T12:32:14.669Z,101325.53
2023-05-21T12:34:46.569Z,101325.78
2023-05-21T12:37:15.995Z,101312.56
2023-05-21T12:39:46.757Z,101312.63
2023-05-21T12:42:13.933Z,101318.16
2023-05-21T12:44:47.534Z,101321.47
2023-05-21T12:47:14.420Z,101318.16
2023-05-21T12:49:46.398Z,101321.81
2023-05-21T12:52:13.429Z,101319.97
2023-05-21T12:54:41.886Z,101312.91
2023-05-21T12:57:14.167Z,101318.41
2023-05-21T12:59:57.508Z,101312.59
2023-05-21T13:02:27.736Z,101317.78
2023-05-21T13:04:58.977Z,101315.38
2023-05-21T13:07:26.839Z,101313.22
2023-05-21T13:09:54.335Z,101307.22
2023-05-21T13:12:22.337Z,101292.41
2023-05-21T13:14:52.897Z,101309.00
2023-05-21T13:17:20.053Z,101304.81
2023-05-21T13:20:12.256Z,101305.41
2023-05-21T13:22:42.642Z,101293.75
2023-05-21T13:25:11.152Z,101298.56
2023-05-21T13:27:39.612Z,101302.22
2023-05-21T13:30:07.476Z,101290.94
2023-05-21T13:32:34.350Z,101292.09
2023-05-21T13:35:00.909Z,101291.63
2023-05-21T13:37:27.877Z,101290.34
2023-05-21T13:39:54.364Z,101287.78
2023-05-21T13:42:21.246Z,101292.03
2023-05-21T13:44:48.004Z,101293.94
2023-05-21T13:47:14.589Z,101289.72
2023-05-21T13:49:41.133Z,101289.75
2023-05-21T13:52:08.669Z,101274.53
2023-05-21T13:54:36.099Z,101280.19
2023-05-21T13:57:03.358Z,101266.38
2023-05-21T13:59:31.933Z,101266.69
2023-05-21T14:01:59.857Z,101271.69
2023-05-21T14:04:26.384Z,101274.56
2023-05-21T14:06:53.087Z,101268.13
2023-05-21T14:09:19.534Z,101269.19
2023-05-21T14:11:46.352Z,101276.16
2023-05-21T14:14:18.689Z,101267.00
2023-05-21T14:16:48.867Z,101268.13
2023-05-21T14:19:15.986Z,101274.44
2023-05-21T14:21:43.111Z,101268.78
2023-05-21T14:24:09.699Z,101281.94
2023-05-21T14:26:39.963Z,101276.06
2023-05-21T14:29:06.571Z,101275.09
2023-05-21T14:31:33.047Z,101271.19
2023-05-21T14:33:59.542Z,101277.78
2023-05-21T14:36:25.992Z,101263.78
2023-05-21T14:38:52.457Z,101270.53
2023-05-21T14:41:18.909Z,101276.66
2023-05-21T14:43:45.424Z,101266.19
2023-05-21T14:46:12.013Z,101270.03
2023-05-21T14:48:38.527Z,101275.75
2023-05-21T14:51:05.031Z,101264.66
2023-05-21T14:53:32.265Z,101270.59
2023-05-21T14:55:58.845Z,101273.59
2023-05-21T14:58:25.337Z,101273.47
2023-05-21T15:00:51.819Z,101266.63
2023-05-21T15:03:18.303Z,101268.09
2023-05-21T15:05:44.792Z,101275.53
2023-05-21T15:08:11.281Z,101271.53
2023-05-21T15:10:37.843Z,101272.97
2023-05-21T15:13:04.328Z,101273.59
2023-05-21T15:15:30.774Z,101269.97
2023-05-21T15:17:57.989Z,101274.94
2023-05-21T15:20:24.689Z,101269.66
2023-05-21T15:22:53.492Z,101264.72
2023-05-21T15:25:23.509Z,101263.44
2023-05-21T15:27:50.586Z,101264.16
2023-05-21T15:30:17.362Z,101261.34
2023-05-21T15:32:43.884Z,101256.69
2023-05-21T15:35:10.492Z,101250.28
2023-05-21T15:37:37.138Z,101253.91
2023-05-21T15:40:04.116Z,101255.91
2023-05-21T15:42:31.811Z,101254.41
2023-05-21T15:44:58.607Z,101253.91
2023-05-21T15:47:25.117Z,101253.13
2023-05-21T15:49:51.747Z,101253.28
2023-05-21T15:52:19.798Z,101255.72
2023-05-21T15:54:46.940Z,101259.41
2023-05-21T15:57:13.405Z,101255.91
2023-05-21T15:59:39.932Z,101246.88
2023-05-21T16:02:06.375Z,101251.34
2023-05-21T16:04:33.850Z,101250.94
2023-05-21T16:07:00.517Z,101249.75
2023-05-21T16:09:27.020Z,101241.31
2023-05-21T16:11:53.480Z,101250.28
2023-05-21T16:14:19.941Z,101250.56
2023-05-21T16:16:46.485Z,101250.91
2023-05-21T16:19:13.099Z,101240.25
2023-05-21T16:21:39.600Z,101233.91
2023-05-21T16:24:06.583Z,101240.53
2023-05-21T16:26:33.034Z,101246.16
2023-05-21T16:28:59.948Z,101236.97
2023-05-21T16:31:26.482Z,101237.69
2023-05-21T16:33:53.009Z,101237.50
2023-05-21T16:36:19.500Z,101234.84
2023-05-21T16:38:45.989Z,101229.44
2023-05-21T16:41:12.617Z,101231.25
2023-05-21T16:43:39.130Z,101222.88
2023-05-21T16:46:05.944Z,101239.72
2023-05-21T16:48:32.779Z,101232.63
2023-05-21T16:50:59.686Z,101225.38
2023-05-21T16:53:26.804Z,101230.66
2023-05-21T16:55:53.294Z,101237.81
2023-05-21T16:58:19.815Z,101234.97
2023-05-21T17:00:46.459Z,101235.41
2023-05-21T17:03:13.049Z,101238.22
2023-05-21T17:05:39.629Z,101242.56
2023-05-21T17:08:06.099Z,101237.06
2023-05-21T17:10:32.994Z,101241.16
2023-05-21T17:13:01.866Z,101244.84
2023-05-21T17:15:33.270Z,101248.75
2023-05-21T17:17:59.801Z,101244.09
2023-05-21T17:20:26.460Z,101248.03
2023-05-21T17:22:52.963Z,101240.94
2023-05-21T17:25:19.574Z,101243.38
2023-05-21T17:27:46.138Z,101247.91
2023-05-21T17:30:12.938Z,101244.00
2023-05-21T17:32:39.431Z,101239.00
2023-05-21T17:35:06.453Z,101249.56
2023-05-21T17:37:34.016Z,101241.88
2023-05-21T17:40:00.523Z,101244.84
2023-05-21T17:42:27.020Z,101243.59
2023-05-21T17:44:54.272Z,101241.31
2023-05-21T17:47:20.768Z,101238.28
2023-05-21T17:49:47.263Z,101248.00
2023-05-21T17:52:13.780Z,101246.69
2023-05-21T17:54:40.345Z,101257.53
2023-05-21T17:57:06.799Z,101256.16
2023-05-21T17:59:33.274Z,101255.25
2023-05-21T18:02:01.521Z,101260.59
2023-05-21T18:04:28.151Z,101260.44
2023-05-21T18:06:54.662Z,101262.03
2023-05-21T18:09:21.134Z,101266.25
2023-05-21T18:11:47.593Z,101261.50
2023-05-21T18:14:14.178Z,101263.53
2023-05-21T18:16:40.942Z,101266.59
2023-05-21T18:19:07.588Z,101269.00
2023-05-21T18:21:35.169Z,101269.38
2023-05-21T18:24:02.916Z,101270.03
2023-05-21T18:26:30.274Z,101276.94
2023-05-21T18:28:57.922Z,101278.00
2023-05-21T18:31:24.783Z,101274.69
2023-05-21T18:33:52.043Z,101270.03
2023-05-21T18:36:18.678Z,101264.56
2023-05-21T18:38:45.299Z,101277.25
2023-05-21T18:41:11.809Z,101278.81
2023-05-21T18:43:38.298Z,101280.09
2023-05-21T18:46:04.759Z,101280.38
2023-05-21T18:48:31.209Z,101283.63
2023-05-21T18:50:57.782Z,101275.94
2023-05-21T18:53:24.328Z,101279.00
2023-05-21T18:55:50.787Z,101279.47
2023-05-21T18:58:17.282Z,101282.94
2023-05-21T19:00:43.751Z,101285.81
2023-05-21T19:03:11.123Z,101290.53
2023-05-21T19:05:37.745Z,101290.41
2023-05-21T19:08:04.562Z,101290.25
2023-05-21T19:10:31.024Z,101295.56
2023-05-21T19:12:57.500Z,101294.19
2023-05-21T19:15:24.001Z,101294.53
2023-05-21T19:17:50.584Z,101301.94
2023-05-21T19:20:24.320Z,101302.09
2023-05-21T19:22:51.198Z,101313.69
2023-05-21T19:25:17.693Z,101310.09
2023-05-21T19:27:44.522Z,101314.38
2023-05-21T19:30:11.297Z,101312.06
2023-05-21T19:32:37.763Z,101316.38
2023-05-21T19:35:05.566Z,101322.31
2023-05-21T19:37:32.012Z,101319.13
2023-05-21T19:39:58.490Z,101322.47
2023-05-21T19:42:24.970Z,101327.38
2023-05-21T19:44:51.440Z,101323.22
2023-05-21T19:47:17.901Z,101322.63
2023-05-21T19:49:44.475Z,101319.44
2023-05-21T19:52:12.056Z,101319.44
2023-05-21T19:54:38.628Z,101321.97
2023-05-21T19:57:05.823Z,101325.53
2023-05-21T19:59:32.359Z,101324.22
2023-05-21T20:01:58.856Z,101327.00
2023-05-21T20:04:25.501Z,101323.66
2023-05-21T20:06:52.074Z,101321.63
2023-05-21T20:09:18.595Z,101322.22
2023-05-21T20:11:45.144Z,101318.16
2023-05-21T20:14:11.651Z,101323.16
2023-05-21T20:16:38.211Z,101326.50
2023-05-21T20:19:05.667Z,101321.47
2023-05-21T20:21:32.175Z,101327.91
2023-05-21T20:23:58.714Z,101325.06
2023-05-21T20:26:26.152Z,101323.31
2023-05-21T20:28:52.651Z,101317.22
2023-05-21T20:31:19.410Z,101329.34
2023-05-21T20:33:46.342Z,101320.56
2023-05-21T20:36:15.113Z,101314.47
2023-05-21T20:38:42.050Z,101323.66
2023-05-21T20:41:08.688Z,101319.97
2023-05-21T20:43:37.224Z,101322.81
2023-05-21T20:46:05.691Z,101320.19
2023-05-21T20:48:32.249Z,101321.03
2023-05-21T20:50:59.833Z,101324.00
2023-05-21T20:53:26.742Z,101320.09
2023-05-21T20:55:54.745Z,101331.38
2023-05-21T20:58:23.857Z,101333.41
2023-05-21T21:00:50.464Z,101333.88
2023-05-21T21:03:18.176Z,101341.03
2023-05-21T21:05:44.843Z,101345.06
2023-05-21T21:08:12.234Z,101342.69
2023-05-21T21:10:41.310Z,101337.00
2023-05-21T21:13:08.276Z,101340.28
2023-05-21T21:15:35.390Z,101347.56
2023-05-21T21:18:01.952Z,101342.66
2023-05-21T21:20:28.458Z,101338.38
2023-05-21T21:22:54.958Z,101351.34
2023-05-21T21:25:21.547Z,101344.09
2023-05-21T21:27:47.997Z,101341.59
2023-05-21T21:30:14.532Z,101349.41
2023-05-21T21:32:41.222Z,101338.69
2023-05-21T21:35:08.049Z,101349.06
2023-05-21T21:37:34.607Z,101344.28
2023-05-21T21:40:01.052Z,101339.84
2023-05-21T21:42:27.546Z,101340.44
2023-05-21T21:44:54.006Z,101347.78
2023-05-21T21:47:20.465Z,101349.44
2023-05-21T21:49:48.031Z,101341.38
2023-05-21T21:52:14.702Z,101345.44
2023-05-21T21:54:41.241Z,101340.16
2023-05-21T21:57:07.696Z,101343.50
2023-05-21T21:59:34.386Z,101339.22
2023-05-21T22:02:01.060Z,101340.75
2023-05-21T22:04:27.545Z,101343.59
2023-05-21T22:06:54.052Z,101345.84
2023-05-21T22:09:22.504Z,101338.66
2023-05-21T22:11:49.165Z,101332.75
2023-05-21T22:14:15.898Z,101348.13
2023-05-21T22:16:43.265Z,101342.31
2023-05-21T22:19:10.177Z,101343.34
2023-05-21T22:21:36.821Z,101354.28
2023-05-21T22:24:04.020Z,101345.56
2023-05-21T22:26:30.537Z,101351.28
2023-05-21T22:28:59.059Z,101345.00
2023-05-21T22:31:26.729Z,101349.38
2023-05-21T22:33:53.287Z,101351.25
2023-05-21T22:36:19.740Z,101342.50
2023-05-21T22:38:46.255Z,101354.50
2023-05-21T22:41:12.721Z,101351.47
2023-05-21T22:43:39.262Z,101356.03
2023-05-21T22:46:05.824Z,101353.19
2023-05-21T22:48:34.323Z,101355.84
2023-05-21T22:51:01.831Z,101355.91
2023-05-21T22:53:28.426Z,101351.31
2023-05-21T22:55:54.897Z,101354.00
2023-05-21T22:58:21.381Z,101352.97
2023-05-21T23:00:48.094Z,101353.19
2023-05-21T23:03:14.773Z,101348.50
2023-05-21T23:05:41.371Z,101348.22
2023-05-21T23:08:07.875Z,101348.84
2023-05-21T23:10:35.399Z,101346.44
2023-05-21T23:13:02.085Z,101354.31
2023-05-21T23:15:29.527Z,101358.19
2023-05-21T23:17:56.758Z,101347.97
2023-05-21T23:20:24.532Z,101343.94
2023-05-21T23:22:51.032Z,101342.78
2023-05-21T23:25:17.818Z,101345.19
2023-05-21T23:27:44.368Z,101344.22
2023-05-21T23:30:11.954Z,101340.34
2023-05-21T23:32:38.686Z,101334.16
2023-05-21T23:35:05.648Z,101334.19
2023-05-21T23:37:32.117Z,101342.03
2023-05-21T23:39:58.583Z,101331.53
2023-05-21T23:42:25.065Z,101326.19
2023-05-21T23:44:51.527Z,101317.81
2023-05-21T23:47:18.076Z,101328.06
2023-05-21T23:49:44.619Z,101323.88
2023-05-21T23:52:13.052Z,101321.72
2023-05-21T23:54:39.545Z,101326.41
2023-05-21T23:57:06.315Z,101325.03
2023-05-21T23:59:32.833Z,101326.41
